»·PEaware :: N199BZ KSNA-KLAS

N199BZ :: KSNA-KLAS

FLIGHT INFORMATION

Flight Status: Arrived
Operator: Privately registered:
United States
More flights under this callsign
Pilot: Timothy T. (19704)
Aircraft: Unknown
(LEGA)
More flights by this aircraft type
Origin: KSNA John Wayne-Orange Co
United States
Destination: KLAS McCarran Intl
United States
More flights between these airports :: More routes between these airports
Route: FINZZ2 MISEN KEPEC6
File this flight plan on PilotEdge
Remarks: RMK / SIMBRIEF
Altitude:
(Current/Filed)
33,000ft
Speed:
(Current/Filed)
459kts
Departed: 09-Nov-19 01:53 PM
Arrived: 09-Nov-19 02:46 PM
Distance/Time
Traveled:
197nm/0:53
Distance/Time
To Go:
Arrived

Flight Plot

Page will automatically refresh every two minutes.

Flight plan parsing failed; only flown route is shown


Map Options




Map Legend


Flown Route
Filed Route
Departure Airport
Arrival Airport
Navaid (VOR, NDB)
Fix

Horizontal Profiles

Position Reports

Time Latitude Longitude Heading Altitude Ground
Speed
09-Nov-19 13:02 33.673530 -117.872467 297 63ft 0kts
09-Nov-19 13:03 33.673530 -117.872467 297 63ft 0kts
09-Nov-19 13:04 33.673530 -117.872467 297 63ft 0kts
09-Nov-19 13:05 33.673530 -117.872467 297 63ft 0kts
09-Nov-19 13:06 33.673530 -117.872467 297 63ft 0kts
09-Nov-19 13:07 33.673530 -117.872467 297 63ft 0kts
09-Nov-19 13:08 33.673530 -117.872467 297 63ft 0kts
09-Nov-19 13:09 33.673530 -117.872467 297 63ft 0kts
09-Nov-19 13:10 33.673530 -117.872467 297 63ft 0kts
09-Nov-19 13:11 33.673530 -117.872467 297 63ft 0kts
09-Nov-19 13:12 33.673530 -117.872467 297 63ft 0kts
09-Nov-19 13:13 33.673530 -117.872467 297 63ft 0kts
09-Nov-19 13:14 33.673530 -117.872467 297 63ft 0kts
09-Nov-19 13:15 33.673530 -117.872467 297 63ft 0kts
09-Nov-19 13:16 33.673530 -117.872467 297 63ft 0kts
09-Nov-19 13:16 33.673530 -117.872467 297 63ft 0kts
09-Nov-19 13:18 33.673530 -117.872467 297 63ft 0kts
09-Nov-19 13:19 33.673530 -117.872467 297 63ft 0kts
09-Nov-19 13:19 33.673530 -117.872467 297 63ft 0kts
09-Nov-19 13:20 33.673530 -117.872467 297 63ft 0kts
09-Nov-19 13:21 33.673530 -117.872467 297 63ft 0kts
09-Nov-19 13:23 33.673530 -117.872467 297 63ft 0kts
09-Nov-19 13:23 33.673530 -117.872467 297 63ft 0kts
09-Nov-19 13:24 33.673530 -117.872467 297 63ft 0kts
09-Nov-19 13:25 33.673530 -117.872467 297 63ft 0kts
09-Nov-19 13:26 33.673530 -117.872467 297 63ft 0kts
09-Nov-19 13:27 33.673530 -117.872467 297 63ft 0kts
09-Nov-19 13:28 33.673530 -117.872467 297 63ft 0kts
09-Nov-19 13:29 33.673530 -117.872467 297 63ft 0kts
09-Nov-19 13:30 33.673530 -117.872467 297 63ft 0kts
09-Nov-19 13:31 33.673530 -117.872467 297 63ft 0kts
09-Nov-19 13:32 33.673530 -117.872467 297 63ft 0kts
09-Nov-19 13:33 33.673530 -117.872467 297 63ft 0kts
09-Nov-19 13:34 33.673530 -117.872467 297 63ft 0kts
09-Nov-19 13:35 33.673530 -117.872467 297 63ft 0kts
09-Nov-19 13:36 33.673330 -117.872396 31 63ft 2kts
09-Nov-19 13:37 33.672966 -117.872632 27 63ft 0kts
09-Nov-19 13:38 33.672966 -117.872632 27 63ft 0kts
09-Nov-19 13:39 33.672966 -117.872632 27 63ft 0kts
09-Nov-19 13:40 33.672966 -117.872632 27 63ft 0kts
09-Nov-19 13:41 33.672966 -117.872632 27 63ft 0kts
09-Nov-19 13:42 33.672966 -117.872632 27 63ft 0kts
09-Nov-19 13:43 33.672966 -117.872632 27 63ft 0kts
09-Nov-19 13:44 33.672966 -117.872632 27 63ft 0kts
09-Nov-19 13:45 33.673046 -117.872020 37 63ft 7kts
09-Nov-19 13:46 33.675436 -117.870481 31 63ft 5kts
09-Nov-19 13:47 33.677631 -117.869095 27 63ft 17kts
09-Nov-19 13:48 33.681406 -117.866886 28 63ft 10kts
09-Nov-19 13:49 33.681924 -117.866153 89 63ft 0kts
09-Nov-19 13:50 33.681924 -117.866153 89 63ft 0kts
09-Nov-19 13:51 33.681216 -117.865326 207 63ft 0kts
09-Nov-19 13:52 33.678746 -117.866896 208 63ft 67kts
09-Nov-19 13:53 33.644521 -117.886865 194 1272ft 161kts
09-Nov-19 13:54 33.590382 -117.895338 186 1633ft 227kts
09-Nov-19 13:55 33.536647 -117.914507 212 4260ft 180kts
09-Nov-19 13:56 33.486539 -117.956316 212 5744ft 260kts
09-Nov-19 13:57 33.459715 -118.030680 299 7933ft 298kts
09-Nov-19 13:58 33.529686 -118.075042 327 9813ft 286kts
09-Nov-19 13:59 33.600931 -118.110590 24 11356ft 307kts
09-Nov-19 14:00 33.666158 -118.039452 44 12851ft 326kts
09-Nov-19 14:01 33.732314 -117.964298 44 14637ft 331kts
09-Nov-19 14:02 33.799972 -117.887341 44 16042ft 337kts
09-Nov-19 14:03 33.867300 -117.810618 45 17684ft 317kts
09-Nov-19 14:04 33.932761 -117.735770 45 18446ft 327kts
09-Nov-19 14:05 33.998976 -117.659937 45 19082ft 331kts
09-Nov-19 14:06 34.067017 -117.581806 45 19456ft 370kts
09-Nov-19 14:07 34.146006 -117.490998 45 21580ft 401kts
09-Nov-19 14:08 34.228120 -117.396231 46 24173ft 421kts
09-Nov-19 14:09 34.314512 -117.296237 46 26576ft 439kts
09-Nov-19 14:10 34.404539 -117.191717 46 28779ft 460kts
09-Nov-19 14:11 34.498681 -117.082084 46 30937ft 480kts
09-Nov-19 14:12 34.597564 -116.966592 44 32621ft 504kts
09-Nov-19 14:13 34.700554 -116.845784 44 33150ft 526kts
09-Nov-19 14:14 34.805845 -116.721866 44 33149ft 528kts
09-Nov-19 14:15 34.911140 -116.597449 44 33151ft 528kts
09-Nov-19 14:16 34.994729 -116.451737 55 33151ft 525kts
09-Nov-19 14:17 35.102247 -116.331393 42 33148ft 524kts
09-Nov-19 14:18 35.211434 -116.214010 42 33142ft 522kts
09-Nov-19 14:19 35.319040 -116.098657 42 31902ft 501kts
09-Nov-19 14:20 35.421768 -115.989640 47 30137ft 478kts
09-Nov-19 14:21 35.517292 -115.881993 41 28439ft 462kts
09-Nov-19 14:22 35.614036 -115.782638 41 26441ft 445kts
09-Nov-19 14:23 35.706672 -115.688237 41 24254ft 423kts
09-Nov-19 14:24 35.795378 -115.613191 19 24206ft 368kts
09-Nov-19 14:25 35.881086 -115.560114 29 24167ft 327kts
09-Nov-19 14:26 35.958458 -115.511550 29 23952ft 307kts
09-Nov-19 14:27 36.036696 -115.460110 45 21970ft 326kts
09-Nov-19 14:28 36.057709 -115.366900 99 19661ft 240kts
09-Nov-19 14:29 36.046386 -115.294865 109 17081ft 209kts
09-Nov-19 14:30 36.025630 -115.226008 109 13517ft 220kts
09-Nov-19 14:31 36.015365 -115.152999 94 9939ft 219kts
09-Nov-19 14:32 36.010131 -115.076293 93 8824ft 242kts
09-Nov-19 14:33 36.004958 -114.989230 93 8145ft 255kts
09-Nov-19 14:34 35.999803 -114.903535 93 7625ft 249kts
09-Nov-19 14:35 35.994683 -114.820236 93 7126ft 228kts
09-Nov-19 14:36 36.001818 -114.750250 26 7151ft 211kts
09-Nov-19 14:37 36.038920 -114.796692 290 7144ft 231kts
09-Nov-19 14:38 36.061759 -114.873577 290 7140ft 245kts
09-Nov-19 14:39 36.086031 -114.955004 290 6924ft 258kts
09-Nov-19 14:40 36.122431 -115.031059 307 6323ft 256kts
09-Nov-19 14:41 36.158484 -115.089729 307 5718ft 154kts
09-Nov-19 14:42 36.152261 -115.130220 196 3974ft 138kts
09-Nov-19 14:43 36.116986 -115.146519 201 2692ft 132kts
09-Nov-19 14:44 36.087128 -115.163690 204 2137ft 78kts
09-Nov-19 14:45 36.083756 -115.166716 228 2155ft 0kts
09-Nov-19 14:46 36.083756 -115.166716 228 2155ft 0kts
09-Nov-19 14:47 36.083023 -115.167446 211 2160ft 8kts
09-Nov-19 14:48 36.084966 -115.167279 26 2155ft 14kts
09-Nov-19 14:49 36.088294 -115.165372 23 2141ft 12kts
09-Nov-19 14:50 36.091321 -115.163634 27 2126ft 12kts
09-Nov-19 14:51 36.094327 -115.161921 27 2112ft 10kts
09-Nov-19 14:52 36.097120 -115.160379 20 2102ft 10kts
09-Nov-19 14:53 36.098086 -115.161609 199 2106ft 4kts
09-Nov-19 14:54 36.097684 -115.161560 14 2106ft 0kts
09-Nov-19 14:55 36.097684 -115.161560 14 2106ft 0kts

Navigation Log

Ident Type
Flight plan parsing failed, navigation log unavailable